Hurricane, West Virginia
Current Conditions -  °F | °C
As of 12:54 PM on Monday 26 Jan 2015 (Local Time) from KCRW Reporting Station
Light Snow Light Snow  
Wind Chill: 20°   Ceiling: 400
Heat Index: 29°   Visibility: 0.75mi
Dew Point: 26°   Wind: 10mph
Humidity: 89%   Direction: 300°WNW
Pressure: 29.76"   Gusts: 17mph
Location:  38.43°N, 82.02°W
Report Text: KCRW 261754Z 30009G15KT 210V320 3/4SM -SN BR OVC004 M02/M03 A2976 RMK AO2 SLP085 VLY FG P0002 60007 T10171033 10044 21017 51025 RVRNO
Loading
Personal Weather Stations






























Interactive Weather Map New forecast layout! Learn more

10-Day Weather Forecast

Advertisements
Track Severe Weather on mobile